Cut Bank, MT

3:55 PM MST on November 24, 2014 (GMT -0700)
Cut Bank Municipal | Change Station
CLOSE
Current Station
Airport
Location: Cut Bank,
Elevation: 3855 ft
Nearby Weather Stations
Active Advisory: Winter Storm Warning

Elev 3855 ft 48.61 °N, 112.38 °W | Updated 59 minutes ago

Partly Cloudy
Partly Cloudy
37 °F
Feels Like 26 °F
N
22
Wind Variable Wind from WSW
Gusts 34 mph

Today
High -- | Low -- °F
--% Chance of Precip.
Yesterday
High -- | Low -- °F
Precip. -- in
7:51 AM 4:40 PM
Waxing Crescent, 7% visible
Pressure 30.13 in
Visibility 10.0 miles
Clouds Clear
Windchill 26 °F
Dew Point 18 °F
Humidity 46%
Rainfall 0.00 in
Snow Depth Not available.
UV 1 out of 12
Pollen .10 out of 12
Air Quality Not available.
Flu Activity Not available.
METAR KCTB 242156Z AUTO 24019G30KT 10SM CLR 03/M08 A3005 RMK AO2 PK WND 25032/2108 SLP203 T00281078

More Conditions Fewer Conditions

Pressure 30.13 in
Visibility 10.0 miles
Clouds Clear
Windchill 26 °F
Dew Point 18 °F
Humidity 46%
Rainfall 0.00 in
Snow Depth Not available.
UV 1 out of 12
Pollen .10 out of 12
Air Quality Not available.
Flu Activity Not available.
METAR KCTB 242156Z AUTO 24019G30KT 10SM CLR 03/M08 A3005 RMK AO2 PK WND 25032/2108 SLP203 T00281078

More Conditions Fewer Conditions

10-Day Weather Forecast

Almanac

Astronomy

Nov. 24, 2014 Rise Set
Actual Time
Civil Twilight
Nautical Twilight
Astronomical Twilight
Moon
Length of Visible Light
Length of Day
Tomorrow will be .
, % of the Moon is Illuminated

Today's Extremes

State Highs State Lows

Community

WunderPhotos

Upload Photos

1,773,427 photos uploaded!

WunderBlogs® & News

Nearby

Air Quality

  Air Quality AQ Index Pollutant
Not available.

Snow Depth

Station Depth Elevation

Earthquake Activity

City Distance Mag. Time & Date
Minimum magnitude displayed is 2.5.

Coastal Water Temperatures

Place Temperature

Nearby Weather Stations